sensor_id;sensor_type;location;lat;lon;timestamp;temperature;humidity
30069;DHT22;16894;49.456;10.644;2023-05-19T00:01:06;7.00;99.90
30069;DHT22;16894;49.456;10.644;2023-05-19T00:03:33;6.90;99.90
30069;DHT22;16894;49.456;10.644;2023-05-19T00:06:01;6.90;99.90
30069;DHT22;16894;49.456;10.644;2023-05-19T00:08:30;7.00;99.90
30069;DHT22;16894;49.456;10.644;2023-05-19T00:10:57;7.00;99.90
30069;DHT22;16894;49.456;10.644;2023-05-19T00:13:22;7.10;99.90
30069;DHT22;16894;49.456;10.644;2023-05-19T00:15:49;7.30;99.90
30069;DHT22;16894;49.456;10.644;2023-05-19T00:18:15;7.40;99.90
30069;DHT22;16894;49.456;10.644;2023-05-19T00:20:42;7.40;99.90
30069;DHT22;16894;49.456;10.644;2023-05-19T00:23:08;7.40;99.90
30069;DHT22;16894;49.456;10.644;2023-05-19T00:25:33;7.30;99.90
30069;DHT22;16894;49.456;10.644;2023-05-19T00:27:59;7.30;99.90
30069;DHT22;16894;49.456;10.644;2023-05-19T00:30:26;7.30;99.90
30069;DHT22;16894;49.456;10.644;2023-05-19T00:32:52;7.30;99.90
30069;DHT22;16894;49.456;10.644;2023-05-19T00:35:18;7.30;99.90
30069;DHT22;16894;49.456;10.644;2023-05-19T00:37:44;7.20;99.90
30069;DHT22;16894;49.456;10.644;2023-05-19T00:40:10;7.20;99.90
30069;DHT22;16894;49.456;10.644;2023-05-19T00:42:35;7.20;99.90
30069;DHT22;16894;49.456;10.644;2023-05-19T00:45:01;7.20;99.90
30069;DHT22;16894;49.456;10.644;2023-05-19T00:47:27;7.20;99.90
30069;DHT22;16894;49.456;10.644;2023-05-19T00:49:52;7.20;99.90
30069;DHT22;16894;49.456;10.644;2023-05-19T00:52:18;7.30;99.90
30069;DHT22;16894;49.456;10.644;2023-05-19T00:54:44;7.20;99.90
30069;DHT22;16894;49.456;10.644;2023-05-19T00:57:10;7.20;99.90
30069;DHT22;16894;49.456;10.644;2023-05-19T00:59:36;7.10;99.90
30069;DHT22;16894;49.456;10.644;2023-05-19T01:02:02;7.10;99.90
30069;DHT22;16894;49.456;10.644;2023-05-19T01:04:28;7.10;99.90
30069;DHT22;16894;49.456;10.644;2023-05-19T01:06:55;7.00;99.90
30069;DHT22;16894;49.456;10.644;2023-05-19T01:09:21;6.90;99.90
30069;DHT22;16894;49.456;10.644;2023-05-19T01:11:48;6.80;99.90
30069;DHT22;16894;49.456;10.644;2023-05-19T01:14:14;6.70;99.90
30069;DHT22;16894;49.456;10.644;2023-05-19T01:16:49;6.70;99.90
30069;DHT22;16894;49.456;10.644;2023-05-19T01:22:54;6.50;99.90
30069;DHT22;16894;49.456;10.644;2023-05-19T01:31:11;6.80;99.90
30069;DHT22;16894;49.456;10.644;2023-05-19T01:33:39;6.80;99.90
30069;DHT22;16894;49.456;10.644;2023-05-19T01:36:07;6.70;99.90
30069;DHT22;16894;49.456;10.644;2023-05-19T01:38:33;6.70;99.90
30069;DHT22;16894;49.456;10.644;2023-05-19T01:40:59;6.70;99.90
30069;DHT22;16894;49.456;10.644;2023-05-19T01:43:26;6.70;99.90
30069;DHT22;16894;49.456;10.644;2023-05-19T01:45:53;6.90;99.90
30069;DHT22;16894;49.456;10.644;2023-05-19T01:48:20;6.90;99.90
30069;DHT22;16894;49.456;10.644;2023-05-19T01:50:47;7.00;99.90
30069;DHT22;16894;49.456;10.644;2023-05-19T01:53:12;7.10;99.90
30069;DHT22;16894;49.456;10.644;2023-05-19T01:55:46;7.00;99.90
30069;DHT22;16894;49.456;10.644;2023-05-19T02:11:26;7.20;99.90
30069;DHT22;16894;49.456;10.644;2023-05-19T02:13:55;7.30;99.90
30069;DHT22;16894;49.456;10.644;2023-05-19T02:16:25;7.30;99.90
30069;DHT22;16894;49.456;10.644;2023-05-19T02:18:52;7.40;99.90
30069;DHT22;16894;49.456;10.644;2023-05-19T02:21:18;7.40;99.90
30069;DHT22;16894;49.456;10.644;2023-05-19T02:23:44;7.40;99.90
30069;DHT22;16894;49.456;10.644;2023-05-19T02:26:10;7.40;99.90
30069;DHT22;16894;49.456;10.644;2023-05-19T02:28:35;7.50;99.90
30069;DHT22;16894;49.456;10.644;2023-05-19T02:31:02;7.50;99.90
30069;DHT22;16894;49.456;10.644;2023-05-19T02:33:29;7.60;99.90
30069;DHT22;16894;49.456;10.644;2023-05-19T02:35:56;7.70;99.90
30069;DHT22;16894;49.456;10.644;2023-05-19T02:38:22;7.70;99.90
30069;DHT22;16894;49.456;10.644;2023-05-19T02:40:47;7.70;99.90
30069;DHT22;16894;49.456;10.644;2023-05-19T02:43:13;7.70;99.90
30069;DHT22;16894;49.456;10.644;2023-05-19T02:45:38;7.80;99.90
30069;DHT22;16894;49.456;10.644;2023-05-19T02:48:04;7.80;99.90
30069;DHT22;16894;49.456;10.644;2023-05-19T02:50:30;7.80;99.90
30069;DHT22;16894;49.456;10.644;2023-05-19T02:52:55;7.70;99.90
30069;DHT22;16894;49.456;10.644;2023-05-19T02:55:21;7.60;99.90
30069;DHT22;16894;49.456;10.644;2023-05-19T02:57:46;7.60;99.90
30069;DHT22;16894;49.456;10.644;2023-05-19T03:00:12;7.60;99.90
30069;DHT22;16894;49.456;10.644;2023-05-19T03:02:38;7.70;99.90
30069;DHT22;16894;49.456;10.644;2023-05-19T03:05:06;7.60;99.90
30069;DHT22;16894;49.456;10.644;2023-05-19T03:07:32;7.70;99.90
30069;DHT22;16894;49.456;10.644;2023-05-19T03:09:58;7.70;99.90
30069;DHT22;16894;49.456;10.644;2023-05-19T03:12:23;7.80;99.90
30069;DHT22;16894;49.456;10.644;2023-05-19T03:14:49;7.80;99.90
30069;DHT22;16894;49.456;10.644;2023-05-19T03:17:15;7.80;99.90
30069;DHT22;16894;49.456;10.644;2023-05-19T03:19:41;7.80;99.90
30069;DHT22;16894;49.456;10.644;2023-05-19T03:22:07;7.70;99.90
30069;DHT22;16894;49.456;10.644;2023-05-19T03:24:33;7.50;99.90
30069;DHT22;16894;49.456;10.644;2023-05-19T03:26:58;7.50;99.90
30069;DHT22;16894;49.456;10.644;2023-05-19T03:29:24;7.30;99.90
30069;DHT22;16894;49.456;10.644;2023-05-19T03:31:50;7.10;99.90
30069;DHT22;16894;49.456;10.644;2023-05-19T03:34:16;7.10;99.90
30069;DHT22;16894;49.456;10.644;2023-05-19T03:36:42;7.10;99.90
30069;DHT22;16894;49.456;10.644;2023-05-19T03:39:09;7.00;99.90
30069;DHT22;16894;49.456;10.644;2023-05-19T03:41:35;7.00;99.90
30069;DHT22;16894;49.456;10.644;2023-05-19T03:44:01;7.10;99.90
30069;DHT22;16894;49.456;10.644;2023-05-19T03:46:26;7.20;99.90
30069;DHT22;16894;49.456;10.644;2023-05-19T03:48:52;7.30;99.90
30069;DHT22;16894;49.456;10.644;2023-05-19T03:51:17;7.40;99.90
30069;DHT22;16894;49.456;10.644;2023-05-19T03:53:43;7.30;99.90
30069;DHT22;16894;49.456;10.644;2023-05-19T03:56:09;7.40;99.90
30069;DHT22;16894;49.456;10.644;2023-05-19T03:58:38;7.40;99.90
30069;DHT22;16894;49.456;10.644;2023-05-19T04:01:05;7.40;99.90
30069;DHT22;16894;49.456;10.644;2023-05-19T04:03:30;7.50;99.90
30069;DHT22;16894;49.456;10.644;2023-05-19T04:05:56;7.50;99.90
30069;DHT22;16894;49.456;10.644;2023-05-19T04:08:22;7.30;99.90
30069;DHT22;16894;49.456;10.644;2023-05-19T04:10:47;7.40;99.90
30069;DHT22;16894;49.456;10.644;2023-05-19T04:13:13;7.40;99.90
30069;DHT22;16894;49.456;10.644;2023-05-19T04:15:38;7.50;99.90
30069;DHT22;16894;49.456;10.644;2023-05-19T04:18:05;7.70;99.90
30069;DHT22;16894;49.456;10.644;2023-05-19T04:20:31;7.80;99.90
30069;DHT22;16894;49.456;10.644;2023-05-19T04:22:56;7.80;99.90
30069;DHT22;16894;49.456;10.644;2023-05-19T04:25:22;7.80;99.90
30069;DHT22;16894;49.456;10.644;2023-05-19T04:27:49;7.70;99.90
30069;DHT22;16894;49.456;10.644;2023-05-19T04:30:15;7.70;99.90
30069;DHT22;16894;49.456;10.644;2023-05-19T04:32:47;7.70;99.90
30069;DHT22;16894;49.456;10.644;2023-05-19T04:35:14;7.80;99.90
30069;DHT22;16894;49.456;10.644;2023-05-19T04:37:42;7.80;99.90
30069;DHT22;16894;49.456;10.644;2023-05-19T04:40:11;7.80;99.90
30069;DHT22;16894;49.456;10.644;2023-05-19T04:42:37;7.80;99.90
30069;DHT22;16894;49.456;10.644;2023-05-19T04:45:06;7.90;99.90
30069;DHT22;16894;49.456;10.644;2023-05-19T04:47:34;8.00;99.90
30069;DHT22;16894;49.456;10.644;2023-05-19T04:50:03;8.10;99.90
30069;DHT22;16894;49.456;10.644;2023-05-19T04:52:29;7.90;99.90
30069;DHT22;16894;49.456;10.644;2023-05-19T04:54:55;7.80;99.90
30069;DHT22;16894;49.456;10.644;2023-05-19T04:57:21;7.80;99.90
30069;DHT22;16894;49.456;10.644;2023-05-19T04:59:47;7.80;99.90
30069;DHT22;16894;49.456;10.644;2023-05-19T05:02:12;8.00;99.90
30069;DHT22;16894;49.456;10.644;2023-05-19T05:04:38;8.10;99.90
30069;DHT22;16894;49.456;10.644;2023-05-19T05:07:07;8.10;99.90
30069;DHT22;16894;49.456;10.644;2023-05-19T05:09:33;8.30;99.90
30069;DHT22;16894;49.456;10.644;2023-05-19T05:11:59;8.30;99.90
30069;DHT22;16894;49.456;10.644;2023-05-19T05:14:25;8.30;99.90
30069;DHT22;16894;49.456;10.644;2023-05-19T05:16:51;8.20;99.90
30069;DHT22;16894;49.456;10.644;2023-05-19T05:19:17;8.30;99.90
30069;DHT22;16894;49.456;10.644;2023-05-19T05:21:44;8.30;99.90
30069;DHT22;16894;49.456;10.644;2023-05-19T05:24:10;8.50;99.90
30069;DHT22;16894;49.456;10.644;2023-05-19T05:26:37;8.50;99.90
30069;DHT22;16894;49.456;10.644;2023-05-19T05:29:03;8.60;99.90
30069;DHT22;16894;49.456;10.644;2023-05-19T05:31:28;8.70;99.90
30069;DHT22;16894;49.456;10.644;2023-05-19T05:33:54;8.80;99.90
30069;DHT22;16894;49.456;10.644;2023-05-19T05:36:20;8.90;99.90
30069;DHT22;16894;49.456;10.644;2023-05-19T05:38:46;9.00;99.90
30069;DHT22;16894;49.456;10.644;2023-05-19T05:41:11;9.10;99.90
30069;DHT22;16894;49.456;10.644;2023-05-19T05:43:37;9.10;99.90
30069;DHT22;16894;49.456;10.644;2023-05-19T05:46:02;9.30;99.90
30069;DHT22;16894;49.456;10.644;2023-05-19T05:48:28;9.40;99.90
30069;DHT22;16894;49.456;10.644;2023-05-19T05:50:55;9.50;99.90
30069;DHT22;16894;49.456;10.644;2023-05-19T05:53:24;9.60;99.90
30069;DHT22;16894;49.456;10.644;2023-05-19T05:55:50;9.70;99.90
30069;DHT22;16894;49.456;10.644;2023-05-19T05:58:15;9.80;99.90
30069;DHT22;16894;49.456;10.644;2023-05-19T06:00:41;9.90;99.90
30069;DHT22;16894;49.456;10.644;2023-05-19T06:03:08;10.00;99.90
30069;DHT22;16894;49.456;10.644;2023-05-19T06:05:35;10.10;99.90
30069;DHT22;16894;49.456;10.644;2023-05-19T06:08:01;10.20;99.90
30069;DHT22;16894;49.456;10.644;2023-05-19T06:10:30;10.40;99.90
30069;DHT22;16894;49.456;10.644;2023-05-19T06:12:56;10.50;99.90
30069;DHT22;16894;49.456;10.644;2023-05-19T06:15:21;10.60;99.90
30069;DHT22;16894;49.456;10.644;2023-05-19T06:17:47;10.70;99.90
30069;DHT22;16894;49.456;10.644;2023-05-19T06:20:13;10.70;99.90
30069;DHT22;16894;49.456;10.644;2023-05-19T06:22:39;10.90;99.90
30069;DHT22;16894;49.456;10.644;2023-05-19T06:25:05;11.00;99.90
30069;DHT22;16894;49.456;10.644;2023-05-19T06:27:33;11.10;99.90
30069;DHT22;16894;49.456;10.644;2023-05-19T06:29:59;11.20;99.90
30069;DHT22;16894;49.456;10.644;2023-05-19T06:32:25;11.30;99.90
30069;DHT22;16894;49.456;10.644;2023-05-19T06:34:50;11.30;99.90
30069;DHT22;16894;49.456;10.644;2023-05-19T06:37:22;11.40;99.90
30069;DHT22;16894;49.456;10.644;2023-05-19T06:39:54;11.40;99.90
30069;DHT22;16894;49.456;10.644;2023-05-19T06:42:20;11.50;99.90
30069;DHT22;16894;49.456;10.644;2023-05-19T06:44:51;11.60;99.90
30069;DHT22;16894;49.456;10.644;2023-05-19T06:47:17;11.70;99.90
30069;DHT22;16894;49.456;10.644;2023-05-19T06:49:45;11.80;99.90
30069;DHT22;16894;49.456;10.644;2023-05-19T06:52:15;11.90;99.90
30069;DHT22;16894;49.456;10.644;2023-05-19T06:54:40;12.00;99.90
30069;DHT22;16894;49.456;10.644;2023-05-19T06:57:06;12.20;99.90
30069;DHT22;16894;49.456;10.644;2023-05-19T06:59:31;12.30;99.90
30069;DHT22;16894;49.456;10.644;2023-05-19T07:01:57;12.50;99.90
30069;DHT22;16894;49.456;10.644;2023-05-19T07:04:23;12.60;99.90
30069;DHT22;16894;49.456;10.644;2023-05-19T07:06:48;12.50;99.90
30069;DHT22;16894;49.456;10.644;2023-05-19T07:09:14;12.50;99.90
30069;DHT22;16894;49.456;10.644;2023-05-19T07:11:40;12.40;99.90
30069;DHT22;16894;49.456;10.644;2023-05-19T07:14:06;12.30;99.90
30069;DHT22;16894;49.456;10.644;2023-05-19T07:16:31;12.30;99.90
30069;DHT22;16894;49.456;10.644;2023-05-19T07:18:57;12.50;99.90
30069;DHT22;16894;49.456;10.644;2023-05-19T07:21:23;12.50;99.90
30069;DHT22;16894;49.456;10.644;2023-05-19T07:23:48;12.50;99.90
30069;DHT22;16894;49.456;10.644;2023-05-19T07:26:14;12.50;99.90
30069;DHT22;16894;49.456;10.644;2023-05-19T07:28:40;12.60;99.90
30069;DHT22;16894;49.456;10.644;2023-05-19T07:31:07;12.70;99.90
30069;DHT22;16894;49.456;10.644;2023-05-19T07:33:32;12.90;99.90
30069;DHT22;16894;49.456;10.644;2023-05-19T07:35:58;13.00;99.90
30069;DHT22;16894;49.456;10.644;2023-05-19T07:38:23;13.20;99.90
30069;DHT22;16894;49.456;10.644;2023-05-19T07:40:49;13.30;99.90
30069;DHT22;16894;49.456;10.644;2023-05-19T07:43:15;13.40;99.90
30069;DHT22;16894;49.456;10.644;2023-05-19T07:45:40;13.40;99.90
30069;DHT22;16894;49.456;10.644;2023-05-19T07:48:06;13.60;99.90
30069;DHT22;16894;49.456;10.644;2023-05-19T07:50:32;13.70;99.40
30069;DHT22;16894;49.456;10.644;2023-05-19T07:52:58;13.80;99.70
30069;DHT22;16894;49.456;10.644;2023-05-19T07:55:24;13.90;99.80
30069;DHT22;16894;49.456;10.644;2023-05-19T07:57:49;14.00;99.60
30069;DHT22;16894;49.456;10.644;2023-05-19T08:00:15;14.10;99.20
30069;DHT22;16894;49.456;10.644;2023-05-19T08:02:42;14.20;99.30
30069;DHT22;16894;49.456;10.644;2023-05-19T08:05:08;14.20;99.20
30069;DHT22;16894;49.456;10.644;2023-05-19T08:07:35;14.40;98.40
30069;DHT22;16894;49.456;10.644;2023-05-19T08:10:01;14.70;98.80
30069;DHT22;16894;49.456;10.644;2023-05-19T08:12:27;15.00;98.00
30069;DHT22;16894;49.456;10.644;2023-05-19T08:14:52;15.00;96.80
30069;DHT22;16894;49.456;10.644;2023-05-19T08:17:18;15.00;97.20
30069;DHT22;16894;49.456;10.644;2023-05-19T08:19:44;15.20;97.40
30069;DHT22;16894;49.456;10.644;2023-05-19T08:22:09;15.50;96.70
30069;DHT22;16894;49.456;10.644;2023-05-19T08:24:35;15.70;96.00
30069;DHT22;16894;49.456;10.644;2023-05-19T08:27:01;15.80;95.80
30069;DHT22;16894;49.456;10.644;2023-05-19T08:29:29;15.50;96.40
30069;DHT22;16894;49.456;10.644;2023-05-19T08:31:55;15.30;96.70
30069;DHT22;16894;49.456;10.644;2023-05-19T08:34:22;15.30;96.80
30069;DHT22;16894;49.456;10.644;2023-05-19T08:36:48;15.30;96.50
30069;DHT22;16894;49.456;10.644;2023-05-19T08:39:14;15.30;95.90
30069;DHT22;16894;49.456;10.644;2023-05-19T08:41:42;15.30;95.70
30069;DHT22;16894;49.456;10.644;2023-05-19T08:44:08;15.20;96.00
30069;DHT22;16894;49.456;10.644;2023-05-19T08:46:34;15.30;96.50
30069;DHT22;16894;49.456;10.644;2023-05-19T08:49:10;15.50;96.10
30069;DHT22;16894;49.456;10.644;2023-05-19T08:51:54;15.80;96.10
30069;DHT22;16894;49.456;10.644;2023-05-19T08:54:24;15.90;95.50
30069;DHT22;16894;49.456;10.644;2023-05-19T08:56:52;16.00;95.40
30069;DHT22;16894;49.456;10.644;2023-05-19T08:59:18;15.90;95.30
30069;DHT22;16894;49.456;10.644;2023-05-19T09:01:46;15.90;95.80
30069;DHT22;16894;49.456;10.644;2023-05-19T09:04:12;15.90;94.90
30069;DHT22;16894;49.456;10.644;2023-05-19T09:06:38;16.10;95.10
30069;DHT22;16894;49.456;10.644;2023-05-19T09:09:06;16.10;94.50
30069;DHT22;16894;49.456;10.644;2023-05-19T09:11:33;16.00;94.70
30069;DHT22;16894;49.456;10.644;2023-05-19T09:14:00;16.10;94.80
30069;DHT22;16894;49.456;10.644;2023-05-19T09:16:26;16.10;94.60
30069;DHT22;16894;49.456;10.644;2023-05-19T09:18:55;16.00;94.30
30069;DHT22;16894;49.456;10.644;2023-05-19T09:21:31;15.80;95.00
30069;DHT22;16894;49.456;10.644;2023-05-19T09:24:02;15.60;94.90
30069;DHT22;16894;49.456;10.644;2023-05-19T09:26:38;15.50;95.20
30069;DHT22;16894;49.456;10.644;2023-05-19T09:29:12;15.70;95.80
30069;DHT22;16894;49.456;10.644;2023-05-19T09:31:38;15.80;95.20
30069;DHT22;16894;49.456;10.644;2023-05-19T09:34:04;15.90;94.60
30069;DHT22;16894;49.456;10.644;2023-05-19T09:36:38;16.10;94.50
30069;DHT22;16894;49.456;10.644;2023-05-19T09:39:15;16.10;94.70
30069;DHT22;16894;49.456;10.644;2023-05-19T09:41:41;16.10;94.30
30069;DHT22;16894;49.456;10.644;2023-05-19T09:44:12;16.10;94.80
30069;DHT22;16894;49.456;10.644;2023-05-19T09:46:46;16.30;94.50
30069;DHT22;16894;49.456;10.644;2023-05-19T09:49:12;16.10;94.30
30069;DHT22;16894;49.456;10.644;2023-05-19T09:51:40;15.90;94.20
30069;DHT22;16894;49.456;10.644;2023-05-19T09:54:06;15.70;94.50
30069;DHT22;16894;49.456;10.644;2023-05-19T09:56:34;15.60;95.00
30069;DHT22;16894;49.456;10.644;2023-05-19T09:59:02;15.70;94.70
30069;DHT22;16894;49.456;10.644;2023-05-19T10:01:29;15.80;94.20
30069;DHT22;16894;49.456;10.644;2023-05-19T10:03:56;15.90;94.20
30069;DHT22;16894;49.456;10.644;2023-05-19T10:06:22;16.00;93.90
30069;DHT22;16894;49.456;10.644;2023-05-19T10:08:48;16.10;93.60
30069;DHT22;16894;49.456;10.644;2023-05-19T10:11:16;16.20;93.70
30069;DHT22;16894;49.456;10.644;2023-05-19T10:13:44;16.10;93.20
30069;DHT22;16894;49.456;10.644;2023-05-19T10:16:11;16.20;93.20
30069;DHT22;16894;49.456;10.644;2023-05-19T10:18:37;16.20;93.00
30069;DHT22;16894;49.456;10.644;2023-05-19T10:21:04;16.20;93.10
30069;DHT22;16894;49.456;10.644;2023-05-19T10:23:32;16.30;93.30
30069;DHT22;16894;49.456;10.644;2023-05-19T10:25:59;16.40;92.90
30069;DHT22;16894;49.456;10.644;2023-05-19T10:28:36;16.40;92.50
30069;DHT22;16894;49.456;10.644;2023-05-19T10:31:05;16.40;92.90
30069;DHT22;16894;49.456;10.644;2023-05-19T10:37:11;16.30;92.60
30069;DHT22;16894;49.456;10.644;2023-05-19T10:39:41;16.40;92.10
30069;DHT22;16894;49.456;10.644;2023-05-19T10:42:12;16.50;92.50
30069;DHT22;16894;49.456;10.644;2023-05-19T10:47:24;16.80;91.80
30069;DHT22;16894;49.456;10.644;2023-05-19T10:49:55;16.80;91.90
30069;DHT22;16894;49.456;10.644;2023-05-19T10:52:22;16.70;92.60
30069;DHT22;16894;49.456;10.644;2023-05-19T10:54:50;16.70;91.80
30069;DHT22;16894;49.456;10.644;2023-05-19T10:57:19;16.60;91.90
30069;DHT22;16894;49.456;10.644;2023-05-19T10:59:49;16.50;92.20
30069;DHT22;16894;49.456;10.644;2023-05-19T11:02:40;16.60;91.80
30069;DHT22;16894;49.456;10.644;2023-05-19T11:05:15;16.50;92.30
30069;DHT22;16894;49.456;10.644;2023-05-19T11:07:43;16.40;92.50
30069;DHT22;16894;49.456;10.644;2023-05-19T11:10:22;16.60;92.70
30069;DHT22;16894;49.456;10.644;2023-05-19T11:12:49;16.60;92.30
30069;DHT22;16894;49.456;10.644;2023-05-19T11:15:15;16.90;91.80
30069;DHT22;16894;49.456;10.644;2023-05-19T11:17:44;17.00;91.10
30069;DHT22;16894;49.456;10.644;2023-05-19T11:20:25;17.30;91.40
30069;DHT22;16894;49.456;10.644;2023-05-19T11:23:04;17.40;91.10
30069;DHT22;16894;49.456;10.644;2023-05-19T11:25:50;17.60;91.20
30069;DHT22;16894;49.456;10.644;2023-05-19T11:28:19;17.80;90.40
30069;DHT22;16894;49.456;10.644;2023-05-19T11:30:46;17.90;89.70
30069;DHT22;16894;49.456;10.644;2023-05-19T11:33:16;17.90;89.80
30069;DHT22;16894;49.456;10.644;2023-05-19T11:35:45;17.90;88.70
30069;DHT22;16894;49.456;10.644;2023-05-19T11:38:12;17.60;89.90
30069;DHT22;16894;49.456;10.644;2023-05-19T11:40:40;17.50;90.00
30069;DHT22;16894;49.456;10.644;2023-05-19T11:43:06;17.50;90.10
30069;DHT22;16894;49.456;10.644;2023-05-19T11:45:32;17.90;90.10
30069;DHT22;16894;49.456;10.644;2023-05-19T11:48:00;18.70;87.00
30069;DHT22;16894;49.456;10.644;2023-05-19T11:50:27;18.90;85.90
30069;DHT22;16894;49.456;10.644;2023-05-19T11:52:54;18.80;85.90
30069;DHT22;16894;49.456;10.644;2023-05-19T11:55:21;18.60;85.40
30069;DHT22;16894;49.456;10.644;2023-05-19T11:58:04;18.60;85.90
30069;DHT22;16894;49.456;10.644;2023-05-19T12:00:35;18.80;87.30
30069;DHT22;16894;49.456;10.644;2023-05-19T12:03:04;19.30;85.10
30069;DHT22;16894;49.456;10.644;2023-05-19T12:05:30;20.00;83.80
30069;DHT22;16894;49.456;10.644;2023-05-19T12:07:56;21.00;79.80
30069;DHT22;16894;49.456;10.644;2023-05-19T12:10:26;21.90;78.70
30069;DHT22;16894;49.456;10.644;2023-05-19T12:12:56;22.20;77.10
30069;DHT22;16894;49.456;10.644;2023-05-19T12:15:23;21.90;76.90
30069;DHT22;16894;49.456;10.644;2023-05-19T12:20:18;21.50;75.50
30069;DHT22;16894;49.456;10.644;2023-05-19T12:22:46;20.70;77.40
30069;DHT22;16894;49.456;10.644;2023-05-19T12:25:12;20.20;78.30
30069;DHT22;16894;49.456;10.644;2023-05-19T12:27:41;20.40;78.20
30069;DHT22;16894;49.456;10.644;2023-05-19T12:30:08;21.50;75.80
30069;DHT22;16894;49.456;10.644;2023-05-19T12:32:34;22.50;74.00
30069;DHT22;16894;49.456;10.644;2023-05-19T12:35:04;22.30;72.50
30069;DHT22;16894;49.456;10.644;2023-05-19T12:37:31;22.80;72.40
30069;DHT22;16894;49.456;10.644;2023-05-19T12:40:00;21.70;74.00
30069;DHT22;16894;49.456;10.644;2023-05-19T12:42:28;21.00;75.70
30069;DHT22;16894;49.456;10.644;2023-05-19T12:44:56;20.80;75.60
30069;DHT22;16894;49.456;10.644;2023-05-19T12:47:32;20.50;74.80
30069;DHT22;16894;49.456;10.644;2023-05-19T12:52:25;20.00;75.70
30069;DHT22;16894;49.456;10.644;2023-05-19T12:55:05;20.00;77.80
30069;DHT22;16894;49.456;10.644;2023-05-19T12:57:42;21.20;75.40
30069;DHT22;16894;49.456;10.644;2023-05-19T13:00:16;22.80;72.30
30069;DHT22;16894;49.456;10.644;2023-05-19T13:02:56;23.50;70.10
30069;DHT22;16894;49.456;10.644;2023-05-19T13:05:22;23.30;70.10
30069;DHT22;16894;49.456;10.644;2023-05-19T13:07:59;22.50;70.10
30069;DHT22;16894;49.456;10.644;2023-05-19T13:10:27;23.00;69.30
30069;DHT22;16894;49.456;10.644;2023-05-19T13:12:57;23.30;69.50
30069;DHT22;16894;49.456;10.644;2023-05-19T13:15:24;22.50;69.60
30069;DHT22;16894;49.456;10.644;2023-05-19T13:17:54;22.00;71.50
30069;DHT22;16894;49.456;10.644;2023-05-19T13:20:20;22.00;71.90
30069;DHT22;16894;49.456;10.644;2023-05-19T13:22:49;21.70;71.10
30069;DHT22;16894;49.456;10.644;2023-05-19T13:25:15;21.50;71.90
30069;DHT22;16894;49.456;10.644;2023-05-19T13:27:41;22.00;72.80
30069;DHT22;16894;49.456;10.644;2023-05-19T13:30:07;23.30;69.80
30069;DHT22;16894;49.456;10.644;2023-05-19T13:32:33;24.70;67.40
30069;DHT22;16894;49.456;10.644;2023-05-19T13:35:00;25.40;66.20
30069;DHT22;16894;49.456;10.644;2023-05-19T13:37:26;25.40;63.20
30069;DHT22;16894;49.456;10.644;2023-05-19T13:39:52;25.60;63.90
30069;DHT22;16894;49.456;10.644;2023-05-19T13:42:18;25.60;62.30
30069;DHT22;16894;49.456;10.644;2023-05-19T13:44:46;24.80;63.30
30069;DHT22;16894;49.456;10.644;2023-05-19T13:47:12;23.80;65.30
30069;DHT22;16894;49.456;10.644;2023-05-19T13:49:38;23.20;66.30
30069;DHT22;16894;49.456;10.644;2023-05-19T13:52:04;22.50;67.50
30069;DHT22;16894;49.456;10.644;2023-05-19T13:54:30;22.20;67.30
30069;DHT22;16894;49.456;10.644;2023-05-19T13:56:56;21.80;68.50
30069;DHT22;16894;49.456;10.644;2023-05-19T13:59:24;21.50;68.30
30069;DHT22;16894;49.456;10.644;2023-05-19T14:01:49;21.40;68.50
30069;DHT22;16894;49.456;10.644;2023-05-19T14:04:17;21.70;67.80
30069;DHT22;16894;49.456;10.644;2023-05-19T14:06:43;22.90;66.30
30069;DHT22;16894;49.456;10.644;2023-05-19T14:09:09;22.80;65.90
30069;DHT22;16894;49.456;10.644;2023-05-19T14:11:34;23.90;65.90
30069;DHT22;16894;49.456;10.644;2023-05-19T14:14:00;25.20;63.30
30069;DHT22;16894;49.456;10.644;2023-05-19T14:16:28;25.10;61.50
30069;DHT22;16894;49.456;10.644;2023-05-19T14:18:55;24.00;64.00
30069;DHT22;16894;49.456;10.644;2023-05-19T14:21:21;23.50;64.40
30069;DHT22;16894;49.456;10.644;2023-05-19T14:23:46;23.60;64.60
30069;DHT22;16894;49.456;10.644;2023-05-19T14:26:12;23.40;63.00
30069;DHT22;16894;49.456;10.644;2023-05-19T14:28:38;22.60;64.80
30069;DHT22;16894;49.456;10.644;2023-05-19T14:31:03;22.60;65.40
30069;DHT22;16894;49.456;10.644;2023-05-19T14:33:30;23.10;66.30
30069;DHT22;16894;49.456;10.644;2023-05-19T14:35:56;24.80;63.50
30069;DHT22;16894;49.456;10.644;2023-05-19T14:38:25;25.70;61.80
30069;DHT22;16894;49.456;10.644;2023-05-19T14:40:50;27.10;58.30
30069;DHT22;16894;49.456;10.644;2023-05-19T14:43:16;27.30;58.60
30069;DHT22;16894;49.456;10.644;2023-05-19T14:45:43;27.20;58.80
30069;DHT22;16894;49.456;10.644;2023-05-19T14:48:08;26.90;58.10
30069;DHT22;16894;49.456;10.644;2023-05-19T14:50:36;25.90;59.60
30069;DHT22;16894;49.456;10.644;2023-05-19T14:53:02;24.90;60.50
30069;DHT22;16894;49.456;10.644;2023-05-19T14:55:28;24.90;60.90
30069;DHT22;16894;49.456;10.644;2023-05-19T14:57:53;24.70;60.40
30069;DHT22;16894;49.456;10.644;2023-05-19T15:00:19;23.60;62.60
30069;DHT22;16894;49.456;10.644;2023-05-19T15:02:45;23.10;62.80
30069;DHT22;16894;49.456;10.644;2023-05-19T15:05:10;22.80;63.90
30069;DHT22;16894;49.456;10.644;2023-05-19T15:07:36;22.50;64.80
30069;DHT22;16894;49.456;10.644;2023-05-19T15:10:02;22.30;66.50
30069;DHT22;16894;49.456;10.644;2023-05-19T15:12:29;22.10;65.50
30069;DHT22;16894;49.456;10.644;2023-05-19T15:14:54;22.20;65.30
30069;DHT22;16894;49.456;10.644;2023-05-19T15:17:20;22.10;64.80
30069;DHT22;16894;49.456;10.644;2023-05-19T15:19:46;21.90;65.60
30069;DHT22;16894;49.456;10.644;2023-05-19T15:22:12;21.70;67.20
30069;DHT22;16894;49.456;10.644;2023-05-19T15:24:37;21.40;66.80
30069;DHT22;16894;49.456;10.644;2023-05-19T15:27:03;20.90;67.20
30069;DHT22;16894;49.456;10.644;2023-05-19T15:29:29;20.80;67.60
30069;DHT22;16894;49.456;10.644;2023-05-19T15:31:55;20.80;67.20
30069;DHT22;16894;49.456;10.644;2023-05-19T15:34:21;20.80;67.20
30069;DHT22;16894;49.456;10.644;2023-05-19T15:36:47;20.80;66.90
30069;DHT22;16894;49.456;10.644;2023-05-19T15:39:12;20.90;66.70
30069;DHT22;16894;49.456;10.644;2023-05-19T15:41:38;21.00;66.60
30069;DHT22;16894;49.456;10.644;2023-05-19T15:44:04;21.10;66.90
30069;DHT22;16894;49.456;10.644;2023-05-19T15:46:31;21.20;66.60
30069;DHT22;16894;49.456;10.644;2023-05-19T15:48:57;21.20;65.80
30069;DHT22;16894;49.456;10.644;2023-05-19T15:51:23;20.80;66.30
30069;DHT22;16894;49.456;10.644;2023-05-19T15:53:49;20.70;66.40
30069;DHT22;16894;49.456;10.644;2023-05-19T15:56:14;20.70;66.60